Alma, Illinois
Current Conditions -  °F | °C
As of 10:55 AM on Thursday 27 Nov 2014 (Local Time) from KENL Reporting Station
Haze Haze  
Wind Chill: 23°   Ceiling: 2800
Heat Index: 29°   Visibility: 4mi
Dew Point: 25°   Wind: 6mph
Humidity: 83%   Direction: 300°WNW
Pressure: 30.46"   Gusts: NA
Location:  38.72°N, 88.91°W
Report Text: KENL 271655Z AUTO 30005KT 4SM BR OVC028 M02/M04 A3046 RMK AO2 T10161041
Loading
Personal Weather Stations






























Interactive Weather Map New forecast layout! Learn more

10-Day Weather Forecast

Advertisements
Track Severe Weather on mobile